This is the latest recevied weather packets stored in our database for station/object KE5QKR. If no packets are shown the sender has not sent any weather packets the latest 10 day(s).
| Time | Temp. | Humidity | Pressure | Rain* | Wind** | Luminosity | Snow |
|---|---|---|---|---|---|---|---|
| 1778019677 | 25.56° C | 75% | 1010.3 hPa | 0 mm | - | 121 W/m² | - |
| 1778019374 | 25.56° C | 76% | 1010.2 hPa | 0 mm | - | 136 W/m² | - |
| 1778019071 | 25.56° C | 75% | 1010 hPa | 0 mm | - | 98 W/m² | - |
| 1778018768 | 26.11° C | 74% | 1010.3 hPa | 0 mm | - | 145 W/m² | - |
| 1778018466 | 26.11° C | 74% | 1010.2 hPa | 0 mm | - | 144 W/m² | - |
| 1778018163 | 26.67° C | 73% | 1010.4 hPa | 0 mm | - | 184 W/m² | - |
| 1778017862 | 26.67° C | 72% | 1010.5 hPa | 0 mm | - | 200 W/m² | - |
| 1778017560 | 26.67° C | 72% | 1010.5 hPa | 0 mm | - | 223 W/m² | - |
| 1778017256 | 26.11° C | 72% | 1010.5 hPa | 0 mm | - | 245 W/m² | - |
| 1778016954 | 25.56° C | 73% | 1010.2 hPa | 0 mm | - | 244 W/m² | - |
| 1778016650 | 25.56° C | 73% | 1010.6 hPa | 0 mm | - | 105 W/m² | - |
| 1778016346 | 26.11° C | 72% | 1010.3 hPa | 0 mm | - | 125 W/m² | - |
| 1778016044 | 26.67° C | 72% | 1010.4 hPa | 0 mm | - | 163 W/m² | - |
| 1778015741 | 26.67° C | 70% | 1010.3 hPa | 0 mm | - | 218 W/m² | - |
| 1778015437 | 26.67° C | 71% | 1010.5 hPa | 0 mm | - | 482 W/m² | - |
| 1778015134 | 26.67° C | 71% | 1010.4 hPa | 0 mm | - | 224 W/m² | - |
| 1778014831 | 26.67° C | 71% | 1010.3 hPa | 0 mm | - | 230 W/m² | - |
| 1778014529 | 26.67° C | 69% | 1010.5 hPa | 0 mm | - | 263 W/m² | - |
| 1778014227 | 26.67° C | 70% | 1010.3 hPa | 0 mm | - | 242 W/m² | - |
| 1778013924 | 26.67° C | 69% | 1010.3 hPa | 0 mm | - | 251 W/m² | - |
| 1778013621 | 27.22° C | 67% | 1010.5 hPa | 0 mm | - | 251 W/m² | - |
| 1778013318 | 27.22° C | 69% | 1010.4 hPa | 0 mm | - | 278 W/m² | - |
| 1778013014 | 28.33° C | 65% | 1010.3 hPa | 0 mm | - | 409 W/m² | - |
| 1778012710 | 27.22° C | 67% | 1010.4 hPa | 0 mm | - | 551 W/m² | - |
| 1778012406 | 27.22° C | 68% | 1010.7 hPa | 0 mm | - | 175 W/m² | - |
* Rain latest hour (hover to see other rain measurements)
** Current wind speed in m/s (hover to see current wind gust speed)